createdAt,value
2022-10-05T09:55:49.414Z,98481.41
2022-10-05T09:58:56.139Z,98471.59
2022-10-05T10:01:43.903Z,98476.38
2022-10-05T10:04:38.764Z,98472.22
2022-10-05T10:07:39.876Z,98466.03
2022-10-05T10:10:49.674Z,98470.97
2022-10-05T10:13:54.813Z,98484.84
2022-10-05T10:16:38.645Z,98478.22
2022-10-05T10:19:27.250Z,98476.94
2022-10-05T10:22:42.269Z,98479.84
2022-10-05T10:25:52.970Z,98480.28
2022-10-05T10:28:58.024Z,98481.72
2022-10-05T10:32:00.182Z,98473.16
2022-10-05T10:34:58.485Z,98480.44
2022-10-05T10:38:06.018Z,98476.22
2022-10-05T10:40:45.718Z,98476.53
2022-10-05T10:43:42.578Z,98478.56
2022-10-05T10:46:28.992Z,98483.38
2022-10-05T10:49:17.374Z,98487.16
2022-10-05T10:52:16.543Z,98487.22
2022-10-05T10:55:30.813Z,98489.72
2022-10-05T10:58:41.295Z,98479.28
2022-10-05T11:01:33.075Z,98489.63
2022-10-05T11:04:47.751Z,98485.66
2022-10-05T11:07:46.968Z,98492.81
2022-10-05T11:10:52.215Z,98484.09
2022-10-05T11:14:05.704Z,98494.00
2022-10-05T11:17:24.669Z,98491.09
2022-10-05T11:20:21.321Z,98497.38
2022-10-05T11:23:08.373Z,98495.47
2022-10-05T11:26:07.064Z,98493.59
2022-10-05T11:28:54.938Z,98494.00
2022-10-05T11:32:06.080Z,98498.88
2022-10-05T11:35:06.702Z,98491.84
2022-10-05T11:38:05.502Z,98486.50
2022-10-05T11:40:59.948Z,98489.59
2022-10-05T11:44:09.917Z,98497.19
2022-10-05T11:46:52.089Z,98506.06
2022-10-05T11:49:39.030Z,98510.47
2022-10-05T11:52:22.219Z,98519.47
2022-10-05T11:55:18.850Z,98523.06
2022-10-05T11:57:59.029Z,98526.22
2022-10-05T12:00:41.839Z,98528.41
2022-10-05T12:03:41.118Z,98536.25
2022-10-05T12:06:52.286Z,98523.97
2022-10-05T12:09:39.353Z,98534.28
2022-10-05T12:12:18.987Z,98545.38
2022-10-05T12:15:00.819Z,98548.97
2022-10-05T12:17:42.172Z,98551.56
2022-10-05T12:20:20.592Z,98558.59
2022-10-05T12:23:01.079Z,98563.72
2022-10-05T12:25:38.198Z,98576.28
2022-10-05T12:28:18.041Z,98584.19
2022-10-05T12:31:09.443Z,98597.13
2022-10-05T12:33:49.893Z,98599.41
2022-10-05T12:36:35.908Z,98591.84
2022-10-05T12:39:23.295Z,98590.13
2022-10-05T12:42:07.228Z,98585.63
2022-10-05T12:45:05.800Z,98598.50
2022-10-05T12:47:53.893Z,98611.81
2022-10-05T12:50:33.852Z,98607.25
2022-10-05T12:53:23.952Z,98603.78
2022-10-05T12:56:07.866Z,98615.47
2022-10-05T12:58:52.368Z,98621.06
2022-10-05T13:01:36.134Z,98627.28
2022-10-05T13:04:21.333Z,98627.59
2022-10-05T13:07:08.482Z,98636.63
2022-10-05T13:09:46.087Z,98639.91
2022-10-05T13:12:27.974Z,98654.91
2022-10-05T13:15:06.490Z,98648.16
2022-10-05T13:17:48.989Z,98658.47
2022-10-05T13:20:30.691Z,98660.94
2022-10-05T13:23:10.742Z,98665.13
2022-10-05T13:25:47.921Z,98669.31
2022-10-05T13:28:26.145Z,98695.75
2022-10-05T13:31:08.225Z,98704.81
2022-10-05T13:33:59.641Z,98731.38
2022-10-05T13:36:42.384Z,98735.63
2022-10-05T13:39:26.404Z,98733.53
2022-10-05T13:42:07.353Z,98747.25
2022-10-05T13:44:47.832Z,98744.88
2022-10-05T13:47:27.257Z,98727.69
2022-10-05T13:50:05.912Z,98734.94
2022-10-05T13:52:49.261Z,98742.69
2022-10-05T13:55:32.877Z,98745.38
2022-10-05T13:58:09.332Z,98754.31
2022-10-05T14:00:51.802Z,98742.53
2022-10-05T14:03:36.388Z,98733.13
2022-10-05T14:06:16.647Z,98734.38
2022-10-05T14:08:54.795Z,98739.34
2022-10-05T14:11:34.905Z,98746.09
2022-10-05T14:14:17.302Z,98730.78
2022-10-05T14:16:56.103Z,98715.75
2022-10-05T14:19:31.227Z,98713.50
2022-10-05T14:22:05.679Z,98709.97
2022-10-05T14:24:44.287Z,98720.44
2022-10-05T14:27:29.395Z,98725.13
2022-10-05T14:30:03.620Z,98739.72
2022-10-05T14:32:51.367Z,98754.72
2022-10-05T14:35:26.832Z,98743.38
2022-10-05T14:38:02.991Z,98746.75
2022-10-05T14:40:36.754Z,98752.44
2022-10-05T14:43:22.848Z,98754.56
2022-10-05T14:46:02.767Z,98742.41
2022-10-05T14:48:46.414Z,98761.72
2022-10-05T14:51:33.348Z,98752.66
2022-10-05T14:54:17.277Z,98758.66
2022-10-05T14:56:57.892Z,98766.63
2022-10-05T14:59:48.245Z,98776.31
2022-10-05T15:02:46.412Z,98785.97
2022-10-05T15:05:28.158Z,98785.63
2022-10-05T15:08:10.162Z,98795.81
2022-10-05T15:10:46.573Z,98799.91
2022-10-05T15:13:21.648Z,98802.72
2022-10-05T15:15:58.144Z,98796.00
2022-10-05T15:18:39.526Z,98798.16
2022-10-05T15:21:32.762Z,98802.94
2022-10-05T15:24:10.778Z,98805.28
2022-10-05T15:26:51.954Z,98801.34
2022-10-05T15:29:43.378Z,98802.66
2022-10-05T15:32:30.351Z,98801.00
2022-10-05T15:35:32.049Z,98813.41
2022-10-05T15:38:15.524Z,98825.03
2022-10-05T15:40:56.273Z,98829.84
2022-10-05T15:43:29.679Z,98834.81
2022-10-05T15:46:15.314Z,98836.84
2022-10-05T15:48:55.754Z,98829.19
2022-10-05T15:51:52.290Z,98830.28
2022-10-05T15:55:00.313Z,98834.84
2022-10-05T15:57:42.314Z,98837.34
2022-10-05T16:00:16.339Z,98836.84
2022-10-05T16:02:55.363Z,98842.59
2022-10-05T16:05:58.733Z,98838.78
2022-10-05T16:08:59.972Z,98839.25
2022-10-05T16:11:52.978Z,98846.91
2022-10-05T16:14:37.515Z,98853.41
2022-10-05T16:17:27.918Z,98851.56
2022-10-05T16:20:16.108Z,98855.25
2022-10-05T16:22:54.803Z,98850.16
2022-10-05T16:25:34.851Z,98852.41
2022-10-05T16:28:20.920Z,98845.16
2022-10-05T16:31:02.284Z,98842.50
2022-10-05T16:33:55.917Z,98853.75
2022-10-05T16:36:45.902Z,98850.03
2022-10-05T16:39:25.150Z,98837.03
2022-10-05T16:42:05.410Z,98831.72
2022-10-05T16:44:51.944Z,97612.25
2022-10-05T16:47:49.692Z,98839.88
2022-10-05T16:50:26.936Z,98845.84
2022-10-05T16:53:03.918Z,98850.16
2022-10-05T16:55:42.138Z,98849.28
2022-10-05T16:58:21.736Z,98844.50
2022-10-05T17:01:12.463Z,98846.75
2022-10-05T17:03:58.639Z,98833.81
2022-10-05T17:07:06.917Z,98840.06
2022-10-05T17:09:54.279Z,98834.34
2022-10-05T17:12:44.267Z,98844.34
2022-10-05T17:15:31.011Z,98837.44
2022-10-05T17:18:19.676Z,98842.94
2022-10-05T17:21:04.700Z,98840.94
2022-10-05T17:23:51.760Z,98851.78
2022-10-05T17:26:58.408Z,98841.06
2022-10-05T17:29:35.227Z,98845.06
2022-10-05T17:32:37.857Z,98839.75
2022-10-05T17:35:22.019Z,98837.25
2022-10-05T17:38:21.959Z,98835.97
2022-10-05T17:41:18.704Z,98837.25
2022-10-05T17:44:29.856Z,98833.91
2022-10-05T17:47:05.381Z,98828.88
2022-10-05T17:50:19.065Z,98822.06
2022-10-05T17:53:41.161Z,98828.69
2022-10-05T17:56:13.301Z,98828.03
2022-10-05T17:59:08.109Z,98818.97
2022-10-05T18:01:41.667Z,98818.34
2022-10-05T18:04:35.888Z,98827.84
2022-10-05T18:07:21.171Z,98834.38
2022-10-05T18:10:30.116Z,98834.78
2022-10-05T18:13:36.252Z,98835.25
2022-10-05T18:16:08.971Z,98833.19
2022-10-05T18:18:59.622Z,98840.91
2022-10-05T18:21:39.946Z,98837.28
2022-10-05T18:24:50.443Z,98830.91
2022-10-05T18:27:44.138Z,98819.81
2022-10-05T18:30:24.461Z,98819.53
2022-10-05T18:33:29.673Z,98819.34
2022-10-05T18:36:16.807Z,98818.41
2022-10-05T18:38:59.171Z,98816.09
2022-10-05T18:41:43.494Z,98822.72
2022-10-05T18:44:42.800Z,98818.88
2022-10-05T18:47:25.713Z,98824.63
2022-10-05T18:50:08.369Z,98825.72
2022-10-05T18:52:58.249Z,98812.44
2022-10-05T18:55:38.687Z,98811.59
2022-10-05T18:58:29.665Z,98803.25
2022-10-05T19:01:44.770Z,98801.56
2022-10-05T19:04:27.822Z,98798.88
2022-10-05T19:07:15.137Z,98806.09
2022-10-05T19:10:06.555Z,98791.78
2022-10-05T19:12:53.783Z,98789.19
2022-10-05T19:15:32.652Z,98787.31
2022-10-05T19:18:40.162Z,98788.97
2022-10-05T19:21:26.039Z,98787.63
2022-10-05T19:24:22.464Z,98788.34
2022-10-05T19:27:08.214Z,98791.78
2022-10-05T19:30:03.775Z,98785.44
2022-10-05T19:32:50.708Z,98784.91
2022-10-05T19:35:34.025Z,98780.91
2022-10-05T19:41:04.960Z,98764.97
2022-10-05T19:43:56.265Z,98755.53
2022-10-05T19:46:43.947Z,98753.38
2022-10-05T19:49:16.281Z,98752.84
2022-10-05T19:51:53.875Z,98746.81
2022-10-05T19:54:31.437Z,98738.66
2022-10-05T19:57:04.535Z,98752.72
2022-10-05T19:59:38.812Z,98743.59
2022-10-05T20:02:18.489Z,98740.59
2022-10-05T20:04:51.610Z,98741.09
2022-10-05T20:07:24.874Z,98738.63
2022-10-05T20:10:01.026Z,98745.63
2022-10-05T20:12:52.034Z,98737.75
2022-10-05T20:15:43.218Z,98739.75
2022-10-05T20:19:00.500Z,98735.53
2022-10-05T20:21:44.759Z,98744.44
2022-10-05T20:24:18.718Z,98740.66
2022-10-05T20:27:16.216Z,98735.00
2022-10-05T20:29:48.740Z,98732.44
2022-10-05T20:32:21.530Z,98731.00
2022-10-05T20:34:56.968Z,98726.81
2022-10-05T20:37:29.469Z,98714.88
2022-10-05T20:40:02.119Z,98722.34
2022-10-05T20:42:35.623Z,98708.38
2022-10-05T20:45:09.420Z,98698.34
2022-10-05T20:47:41.842Z,98706.69
2022-10-05T20:50:14.387Z,98711.75
2022-10-05T20:52:46.802Z,98704.56
2022-10-05T20:55:19.226Z,98710.41
2022-10-05T20:57:53.964Z,98707.84
2022-10-05T21:00:25.876Z,98701.16
2022-10-05T21:02:57.842Z,98697.88
2022-10-05T21:05:30.649Z,98696.84
2022-10-05T21:08:03.330Z,98696.78
2022-10-05T21:10:35.300Z,98702.91
2022-10-05T21:13:08.508Z,98695.81
2022-10-05T21:15:40.674Z,98695.25
2022-10-05T21:18:13.309Z,98702.16
2022-10-05T21:20:52.014Z,98702.38
2022-10-05T21:23:24.376Z,98703.91
2022-10-05T21:25:56.389Z,98711.38
2022-10-05T21:28:30.987Z,98709.47
2022-10-05T21:31:03.057Z,98714.19
2022-10-05T21:33:34.863Z,98704.34
2022-10-05T21:36:07.286Z,98706.13
2022-10-05T21:38:39.709Z,98702.25
2022-10-05T21:41:11.906Z,98698.25
2022-10-05T21:43:46.699Z,98699.66
2022-10-05T21:46:21.684Z,98697.81
2022-10-05T21:48:54.684Z,98699.50
2022-10-05T21:51:28.445Z,98710.16
2022-10-05T21:54:04.732Z,98707.47
2022-10-05T21:56:39.326Z,98707.81
2022-10-05T21:59:15.648Z,98698.50
2022-10-05T22:01:47.774Z,98697.91
2022-10-05T22:04:19.741Z,98693.91
2022-10-05T22:06:52.024Z,98701.41
2022-10-05T22:09:24.438Z,98700.19
2022-10-05T22:11:56.337Z,98701.94
2022-10-05T22:14:30.797Z,98710.22
2022-10-05T22:17:03.299Z,98708.84
2022-10-05T22:19:35.647Z,98712.63
2022-10-05T22:22:11.686Z,98710.84
2022-10-05T22:24:43.680Z,98722.06
2022-10-05T22:27:15.918Z,98716.09
2022-10-05T22:29:50.283Z,98722.00
2022-10-05T22:32:22.270Z,98724.59
2022-10-05T22:34:54.616Z,98721.31
2022-10-05T22:37:26.602Z,98716.00
2022-10-05T22:39:59.303Z,98726.63
2022-10-05T22:42:30.977Z,98717.47
2022-10-05T22:45:04.751Z,98715.28
2022-10-05T22:47:37.018Z,98714.13
2022-10-05T22:50:09.640Z,98712.44
2022-10-05T22:52:41.199Z,98716.69
2022-10-05T22:55:13.915Z,98711.88
2022-10-05T22:57:46.564Z,98712.31
2022-10-05T23:00:27.628Z,98709.78
2022-10-05T23:03:03.354Z,98719.91
2022-10-05T23:05:35.596Z,98718.03
2022-10-05T23:08:08.464Z,98717.28
2022-10-05T23:10:40.705Z,98731.47
2022-10-05T23:13:12.708Z,98735.28
2022-10-05T23:15:46.580Z,98734.28
2022-10-05T23:18:18.981Z,98730.19
2022-10-05T23:20:57.374Z,98725.78
2022-10-05T23:23:29.943Z,98729.97
2022-10-05T23:26:05.667Z,98730.19
2022-10-05T23:28:38.005Z,98726.94
2022-10-05T23:31:12.242Z,98720.88
2022-10-05T23:33:44.433Z,98734.00
2022-10-05T23:36:18.192Z,98734.13
2022-10-05T23:38:50.161Z,98737.06
2022-10-05T23:41:23.319Z,98727.59
2022-10-05T23:43:56.160Z,98740.50
2022-10-05T23:46:30.497Z,98742.25
2022-10-05T23:49:02.510Z,98745.56
2022-10-05T23:51:34.963Z,98748.69
2022-10-05T23:54:07.690Z,98750.97
2022-10-05T23:56:40.432Z,98761.34
2022-10-05T23:59:12.497Z,98754.50
